Brownville, New York
Current Conditions -  °F | °C
As of 2:56 AM on Monday 26 Jan 2015 (Local Time) from KART Reporting Station
Clear Clear  
Wind Chill: -14°   Ceiling: Unl
Heat Index:   Visibility: 10mi
Dew Point: -7°   Wind: 9mph
Humidity: 69%   Direction: 40°NE
Pressure: 30.11"   Gusts: NA
Location:  44.01°N, 75.98°W
Report Text: KART 260756Z AUTO 04008KT 10SM CLR M17/M22 A3011 RMK AO2 SLP209 T11721217
Loading
Personal Weather Stations






























Interactive Weather Map New forecast layout! Learn more

10-Day Weather Forecast

Advertisements
Track Severe Weather on mobile